Crackenback, Australia
Current Conditions -  °F | °C
As of 9:00 PM on Thursday 23 Oct 2014 (Local Time) from YCOM Reporting Station
Scattered Clouds Scattered Clouds  
Wind Chill: 55°   Ceiling: Unl
Heat Index: 55°   Visibility: 6mi
Dew Point: 50°   Wind: 14mph
Humidity: 82%   Direction: 10°N
Pressure: 30.15"   Gusts: NA
Location:  36.44°S, 148.51°E
Report Text: YCOM 231000Z AUTO 01012KT 9999 // SCT120 13/10 Q1021
Loading
Personal Weather Stations






























Interactive Weather Map
Tropical Storm Tracking
New forecast layout! Learn more

10-Day Weather Forecast

Advertisements
Track Severe Weather on mobile